createdAt,value
2024-04-06T00:00:13.880Z,934.00
2024-04-06T00:01:13.905Z,935.00
2024-04-06T00:02:13.967Z,936.00
2024-04-06T00:03:13.981Z,935.00
2024-04-06T00:04:13.973Z,933.00
2024-04-06T00:05:14.014Z,933.00
2024-04-06T00:06:14.035Z,933.00
2024-04-06T00:07:14.090Z,935.00
2024-04-06T00:08:17.844Z,935.00
2024-04-06T00:09:14.075Z,936.00
2024-04-06T00:10:14.087Z,932.00
2024-04-06T00:11:14.144Z,934.00
2024-04-06T00:12:14.094Z,936.00
2024-04-06T00:13:14.147Z,933.00
2024-04-06T00:14:14.098Z,933.00
2024-04-06T00:15:14.100Z,929.00
2024-04-06T00:16:14.095Z,928.00
2024-04-06T00:17:14.099Z,927.00
2024-04-06T00:18:14.105Z,924.00
2024-04-06T00:19:14.116Z,925.00
2024-04-06T00:20:14.096Z,927.00
2024-04-06T00:21:14.094Z,926.00
2024-04-06T00:22:14.106Z,927.00
2024-04-06T00:23:14.113Z,929.00
2024-04-06T00:24:14.126Z,931.00
2024-04-06T00:25:14.108Z,928.00
2024-04-06T00:26:14.105Z,927.00
2024-04-06T00:27:14.099Z,930.00
2024-04-06T00:28:14.115Z,929.00
2024-04-06T00:29:14.114Z,932.00
2024-04-06T00:30:14.103Z,933.00
2024-04-06T00:31:14.119Z,929.00
2024-04-06T00:32:14.126Z,930.00
2024-04-06T00:33:14.111Z,929.00
2024-04-06T00:34:14.127Z,930.00
2024-04-06T00:35:14.133Z,929.00
2024-04-06T00:36:14.120Z,924.00
2024-04-06T00:37:14.126Z,925.00
2024-04-06T00:38:14.138Z,924.00
2024-04-06T00:39:14.159Z,928.00
2024-04-06T00:40:14.133Z,927.00
2024-04-06T00:41:14.154Z,929.00
2024-04-06T00:42:14.141Z,929.00
2024-04-06T00:43:14.142Z,928.00
2024-04-06T00:44:14.138Z,924.00
2024-04-06T00:45:14.146Z,927.00
2024-04-06T00:46:14.183Z,928.00
2024-04-06T00:47:14.136Z,929.00
2024-04-06T00:48:14.153Z,927.00
2024-04-06T00:49:14.141Z,928.00
2024-04-06T00:50:14.146Z,928.00
2024-04-06T00:51:14.167Z,927.00
2024-04-06T00:52:14.177Z,924.00
2024-04-06T00:53:14.166Z,921.00
2024-04-06T00:54:14.161Z,921.00
2024-04-06T00:55:14.167Z,923.00
2024-04-06T00:56:14.162Z,921.00
2024-04-06T00:57:14.167Z,920.00
2024-04-06T00:58:14.198Z,919.00
2024-04-06T00:59:14.169Z,917.00
2024-04-06T01:00:14.195Z,919.00
2024-04-06T01:01:14.170Z,920.00
2024-04-06T01:02:14.187Z,923.00
2024-04-06T01:03:14.209Z,927.00
2024-04-06T01:04:14.181Z,926.00
2024-04-06T01:05:14.176Z,926.00
2024-04-06T01:06:14.192Z,924.00
2024-04-06T01:07:14.179Z,923.00
2024-04-06T01:08:14.180Z,920.00
2024-04-06T01:09:14.212Z,919.00
2024-04-06T01:10:14.183Z,920.00
2024-04-06T01:11:14.239Z,918.00
2024-04-06T01:12:14.195Z,917.00
2024-04-06T01:13:14.200Z,915.00
2024-04-06T01:14:14.196Z,915.00
2024-04-06T01:15:14.195Z,919.00
2024-04-06T01:16:14.200Z,920.00
2024-04-06T01:17:14.227Z,918.00
2024-04-06T01:18:14.249Z,916.00
2024-04-06T01:19:14.250Z,916.00
2024-04-06T01:20:14.271Z,915.00
2024-04-06T01:21:14.295Z,914.00
2024-04-06T01:22:14.317Z,919.00
2024-04-06T01:23:14.323Z,919.00
2024-04-06T01:24:14.405Z,918.00
2024-04-06T01:25:14.377Z,917.00
2024-04-06T01:26:14.382Z,917.00
2024-04-06T01:27:14.409Z,917.00
2024-04-06T01:28:14.420Z,917.00
2024-04-06T01:29:14.436Z,915.00
2024-04-06T01:30:14.452Z,915.00
2024-04-06T01:31:14.459Z,914.00
2024-04-06T01:32:14.510Z,912.00
2024-04-06T01:33:14.497Z,912.00
2024-04-06T01:34:14.549Z,911.00
2024-04-06T01:35:14.536Z,908.00
2024-04-06T01:36:14.559Z,907.00
2024-04-06T01:37:14.571Z,909.00
2024-04-06T01:38:14.598Z,912.00
2024-04-06T01:39:14.636Z,909.00
2024-04-06T01:40:14.626Z,905.00
2024-04-06T01:41:14.662Z,904.00
2024-04-06T01:42:14.679Z,907.00
2024-04-06T01:43:14.699Z,909.00
2024-04-06T01:44:14.744Z,909.00
2024-04-06T01:45:14.766Z,910.00
2024-04-06T01:46:14.777Z,912.00
2024-04-06T01:47:14.823Z,909.00
2024-04-06T01:48:14.826Z,909.00
2024-04-06T01:49:14.849Z,906.00
2024-04-06T01:50:14.888Z,907.00
2024-04-06T01:51:14.887Z,907.00
2024-04-06T01:52:14.927Z,907.00
2024-04-06T01:53:14.948Z,908.00
2024-04-06T01:54:14.990Z,907.00
2024-04-06T01:55:15.009Z,907.00
2024-04-06T01:56:15.034Z,907.00
2024-04-06T01:57:15.049Z,906.00
2024-04-06T01:58:15.065Z,907.00
2024-04-06T01:59:15.076Z,903.00
2024-04-06T02:00:15.127Z,905.00
2024-04-06T02:01:15.112Z,905.00
2024-04-06T02:02:15.136Z,907.00
2024-04-06T02:03:15.151Z,907.00
2024-04-06T02:04:15.218Z,910.00
2024-04-06T02:05:15.218Z,907.00
2024-04-06T02:06:15.215Z,911.00
2024-04-06T02:07:15.244Z,910.00
2024-04-06T02:08:15.292Z,912.00
2024-04-06T02:09:15.312Z,906.00
2024-04-06T02:10:15.347Z,905.00
2024-04-06T02:11:15.435Z,905.00
2024-04-06T02:12:15.366Z,901.00
2024-04-06T02:13:15.396Z,902.00
2024-04-06T02:14:15.425Z,901.00
2024-04-06T02:15:15.436Z,901.00
2024-04-06T02:16:15.446Z,900.00
2024-04-06T02:17:15.468Z,902.00
2024-04-06T02:18:15.486Z,901.00
2024-04-06T02:19:15.662Z,901.00
2024-04-06T02:20:15.534Z,899.00
2024-04-06T02:21:15.546Z,898.00
2024-04-06T02:22:15.621Z,898.00
2024-04-06T02:23:15.620Z,899.00
2024-04-06T02:24:15.607Z,901.00
2024-04-06T02:25:15.701Z,901.00
2024-04-06T02:26:15.682Z,902.00
2024-04-06T02:27:15.696Z,899.00
2024-04-06T02:28:15.736Z,900.00
2024-04-06T02:29:15.735Z,897.00
2024-04-06T02:30:15.761Z,898.00
2024-04-06T02:31:15.779Z,900.00
2024-04-06T02:32:15.806Z,898.00
2024-04-06T02:33:15.821Z,899.00
2024-04-06T02:34:15.840Z,899.00
2024-04-06T02:35:15.857Z,901.00
2024-04-06T02:36:15.877Z,897.00
2024-04-06T02:37:15.894Z,897.00
2024-04-06T02:38:15.912Z,896.00
2024-04-06T02:39:15.967Z,898.00
2024-04-06T02:40:15.996Z,896.00
2024-04-06T02:41:16.016Z,895.00
2024-04-06T02:42:16.027Z,895.00
2024-04-06T02:43:16.025Z,895.00
2024-04-06T02:44:16.072Z,895.00
2024-04-06T02:45:16.062Z,896.00
2024-04-06T02:46:16.069Z,895.00
2024-04-06T02:47:16.098Z,896.00
2024-04-06T02:48:16.147Z,895.00
2024-04-06T02:49:16.477Z,898.00
2024-04-06T02:50:16.187Z,896.00
2024-04-06T02:51:16.207Z,895.00
2024-04-06T02:52:16.216Z,898.00
2024-04-06T02:53:16.243Z,897.00
2024-04-06T02:54:16.331Z,895.00
2024-04-06T02:55:16.308Z,894.00
2024-04-06T02:56:16.308Z,895.00
2024-04-06T02:57:16.337Z,895.00
2024-04-06T02:58:16.334Z,898.00
2024-04-06T02:59:16.358Z,894.00
2024-04-06T03:00:16.395Z,893.00
2024-04-06T03:01:16.397Z,895.00
2024-04-06T03:02:16.398Z,896.00
2024-04-06T03:03:16.419Z,899.00
2024-04-06T03:04:16.447Z,899.00
2024-04-06T03:05:16.465Z,896.00
2024-04-06T03:06:16.471Z,892.00
2024-04-06T03:07:16.496Z,892.00
2024-04-06T03:08:16.515Z,890.00
2024-04-06T03:09:16.536Z,888.00
2024-04-06T03:10:16.562Z,887.00
2024-04-06T03:11:16.616Z,890.00
2024-04-06T03:12:16.571Z,892.00
2024-04-06T03:13:16.615Z,893.00
2024-04-06T03:14:16.619Z,892.00
2024-04-06T03:15:16.650Z,893.00
2024-04-06T03:16:16.664Z,895.00
2024-04-06T03:17:16.698Z,896.00
2024-04-06T03:18:16.696Z,895.00
2024-04-06T03:19:16.735Z,896.00
2024-04-06T03:20:16.737Z,897.00
2024-04-06T03:21:16.750Z,896.00
2024-04-06T03:22:16.777Z,893.00
2024-04-06T03:23:16.793Z,889.00
2024-04-06T03:24:16.808Z,891.00
2024-04-06T03:25:16.836Z,894.00
2024-04-06T03:26:16.855Z,896.00
2024-04-06T03:27:16.875Z,898.00
2024-04-06T03:28:16.888Z,893.00
2024-04-06T03:29:16.911Z,890.00
2024-04-06T03:30:16.972Z,890.00
2024-04-06T03:31:16.946Z,889.00
2024-04-06T03:32:16.966Z,889.00
2024-04-06T03:33:16.989Z,889.00
2024-04-06T03:34:17.014Z,890.00
2024-04-06T03:35:17.012Z,890.00
2024-04-06T03:36:17.039Z,888.00
2024-04-06T03:37:17.058Z,884.00
2024-04-06T03:38:17.056Z,886.00
2024-04-06T03:39:17.093Z,889.00
2024-04-06T03:40:17.115Z,888.00
2024-04-06T03:41:17.135Z,889.00
2024-04-06T03:42:17.148Z,889.00
2024-04-06T03:43:17.168Z,886.00
2024-04-06T03:44:17.192Z,886.00
2024-04-06T03:45:17.208Z,886.00
2024-04-06T03:46:17.225Z,882.00
2024-04-06T03:47:17.239Z,883.00
2024-04-06T03:48:17.256Z,880.00
2024-04-06T03:49:17.281Z,880.00
2024-04-06T03:50:17.294Z,881.00
2024-04-06T03:51:17.318Z,881.00
2024-04-06T03:52:17.342Z,881.00
2024-04-06T03:53:17.359Z,882.00
2024-04-06T03:54:17.373Z,884.00
2024-04-06T03:55:17.397Z,883.00
2024-04-06T03:56:17.411Z,882.00
2024-04-06T03:57:17.427Z,881.00
2024-04-06T03:58:17.448Z,882.00
2024-04-06T03:59:17.466Z,883.00
2024-04-06T04:00:17.508Z,881.00
2024-04-06T04:01:17.506Z,880.00
2024-04-06T04:02:17.517Z,879.00
2024-04-06T04:03:17.534Z,878.00
2024-04-06T04:04:17.553Z,877.00
2024-04-06T04:05:17.579Z,878.00
2024-04-06T04:06:17.582Z,876.00
2024-04-06T04:07:17.625Z,877.00
2024-04-06T04:08:17.629Z,876.00
2024-04-06T04:09:17.658Z,876.00
2024-04-06T04:10:17.680Z,875.00
2024-04-06T04:11:17.690Z,877.00
2024-04-06T04:12:17.703Z,878.00
2024-04-06T04:13:17.726Z,876.00
2024-04-06T04:14:17.748Z,876.00
2024-04-06T04:15:17.763Z,874.00
2024-04-06T04:16:17.778Z,873.00
2024-04-06T04:17:17.811Z,876.00
2024-04-06T04:18:17.830Z,877.00
2024-04-06T04:19:17.843Z,877.00
2024-04-06T04:20:17.860Z,875.00
2024-04-06T04:21:17.883Z,874.00
2024-04-06T04:22:17.906Z,872.00
2024-04-06T04:23:17.920Z,871.00
2024-04-06T04:24:17.977Z,870.00
2024-04-06T04:25:17.989Z,871.00
2024-04-06T04:26:18.023Z,872.00
2024-04-06T04:27:18.035Z,873.00
2024-04-06T04:28:18.062Z,875.00
2024-04-06T04:29:18.078Z,875.00
2024-04-06T04:30:18.103Z,874.00
2024-04-06T04:31:18.122Z,875.00
2024-04-06T04:32:25.394Z,893.00
2024-04-06T04:33:25.366Z,885.00
2024-04-06T04:34:25.382Z,881.00
2024-04-06T04:35:25.375Z,883.00
2024-04-06T04:36:25.367Z,882.00
2024-04-06T04:37:25.388Z,880.00
2024-04-06T04:38:25.384Z,877.00
2024-04-06T04:39:25.374Z,875.00
2024-04-06T04:40:25.394Z,875.00
2024-04-06T04:41:25.407Z,877.00
2024-04-06T04:42:25.393Z,876.00
2024-04-06T04:43:25.406Z,876.00
2024-04-06T04:44:38.210Z,873.00
2024-04-06T04:45:26.412Z,871.00
2024-04-06T04:46:25.409Z,871.00
2024-04-06T04:47:25.415Z,871.00
2024-04-06T04:48:25.427Z,872.00
2024-04-06T04:49:25.423Z,871.00
2024-04-06T04:50:25.424Z,873.00
2024-04-06T04:51:25.416Z,875.00
2024-04-06T04:52:25.422Z,877.00
2024-04-06T04:53:25.423Z,876.00
2024-04-06T04:54:25.407Z,877.00
2024-04-06T04:55:25.422Z,876.00
2024-04-06T04:56:25.431Z,876.00
2024-04-06T04:57:25.415Z,876.00
2024-04-06T04:58:25.421Z,876.00
2024-04-06T04:59:25.442Z,877.00
2024-04-06T05:00:25.421Z,876.00
2024-04-06T05:01:25.417Z,876.00
2024-04-06T05:02:25.442Z,874.00
2024-04-06T05:03:25.419Z,875.00
2024-04-06T05:04:25.437Z,876.00
2024-04-06T05:05:25.451Z,875.00
2024-04-06T05:06:25.456Z,879.00
2024-04-06T05:07:25.505Z,878.00
2024-04-06T05:08:25.501Z,877.00
2024-04-06T05:09:25.515Z,877.00
2024-04-06T05:10:25.552Z,872.00
2024-04-06T05:11:25.570Z,869.00
2024-04-06T05:12:25.588Z,869.00
2024-04-06T05:13:25.605Z,865.00
2024-04-06T05:14:25.610Z,867.00
2024-04-06T05:15:25.650Z,866.00
2024-04-06T05:16:25.694Z,869.00
2024-04-06T05:17:25.703Z,868.00
2024-04-06T05:18:25.712Z,871.00
2024-04-06T05:19:25.766Z,869.00
2024-04-06T05:20:25.766Z,869.00
2024-04-06T05:21:25.790Z,871.00
2024-04-06T05:22:25.812Z,870.00
2024-04-06T05:23:25.828Z,868.00
2024-04-06T05:24:25.851Z,866.00
2024-04-06T05:25:25.882Z,868.00
2024-04-06T05:26:25.882Z,867.00
2024-04-06T05:27:25.916Z,868.00
2024-04-06T05:28:25.929Z,870.00
2024-04-06T05:29:26.012Z,867.00
2024-04-06T05:30:26.027Z,869.00
2024-04-06T05:31:26.002Z,870.00
2024-04-06T05:32:26.038Z,874.00
2024-04-06T05:33:26.063Z,872.00
2024-04-06T05:34:26.092Z,874.00
2024-04-06T05:35:26.125Z,873.00
2024-04-06T05:36:26.111Z,870.00
2024-04-06T05:37:26.110Z,869.00
2024-04-06T05:38:26.138Z,868.00
2024-04-06T05:39:26.154Z,866.00
2024-04-06T05:40:26.177Z,863.00
2024-04-06T05:41:26.191Z,861.00
2024-04-06T05:42:26.223Z,861.00
2024-04-06T05:43:26.252Z,861.00
2024-04-06T05:44:26.268Z,862.00
2024-04-06T05:45:26.282Z,861.00
2024-04-06T05:46:26.296Z,861.00
2024-04-06T05:47:26.381Z,860.00
2024-04-06T05:48:26.336Z,862.00
2024-04-06T05:49:26.361Z,863.00
2024-04-06T05:50:26.390Z,860.00
2024-04-06T05:51:26.413Z,860.00
2024-04-06T05:52:29.411Z,859.00
2024-04-06T05:53:26.463Z,856.00
2024-04-06T05:54:26.415Z,854.00
2024-04-06T05:55:26.428Z,852.00
2024-04-06T05:56:26.424Z,854.00
2024-04-06T05:57:26.425Z,855.00
2024-04-06T05:58:26.438Z,852.00
2024-04-06T05:59:26.498Z,853.00
2024-04-06T06:00:26.469Z,854.00
2024-04-06T06:01:26.454Z,853.00
2024-04-06T06:02:26.425Z,856.00
2024-04-06T06:03:26.431Z,858.00
2024-04-06T06:04:26.436Z,858.00
2024-04-06T06:05:26.516Z,858.00
2024-04-06T06:06:26.455Z,855.00
2024-04-06T06:07:26.460Z,853.00
2024-04-06T06:08:26.461Z,849.00
2024-04-06T06:09:26.461Z,848.00
2024-04-06T06:10:26.455Z,848.00
2024-04-06T06:11:26.475Z,851.00
2024-04-06T06:12:26.463Z,851.00
2024-04-06T06:13:26.462Z,853.00
2024-04-06T06:14:26.475Z,852.00
2024-04-06T06:15:26.485Z,852.00
2024-04-06T06:16:26.475Z,853.00
2024-04-06T06:17:26.487Z,852.00
2024-04-06T06:18:26.477Z,848.00
2024-04-06T06:19:26.486Z,850.00
2024-04-06T06:20:26.506Z,847.00
2024-04-06T06:21:26.482Z,846.00
2024-04-06T06:22:26.486Z,843.00
2024-04-06T06:23:26.481Z,846.00
2024-04-06T06:24:26.498Z,846.00
2024-04-06T06:25:26.475Z,848.00
2024-04-06T06:26:26.492Z,849.00
2024-04-06T06:27:26.506Z,848.00
2024-04-06T06:28:26.485Z,849.00
2024-04-06T06:29:26.503Z,850.00
2024-04-06T06:30:26.518Z,848.00
2024-04-06T06:31:26.487Z,846.00
2024-04-06T06:32:26.492Z,847.00
2024-04-06T06:33:26.503Z,848.00
2024-04-06T06:34:26.515Z,848.00
2024-04-06T06:35:26.524Z,852.00
2024-04-06T06:38:27.734Z,853.00
2024-04-06T06:41:26.542Z,848.00
2024-04-06T06:42:26.572Z,846.00
2024-04-06T06:43:26.517Z,845.00
2024-04-06T06:44:26.534Z,844.00
2024-04-06T06:45:26.520Z,843.00
2024-04-06T06:46:26.525Z,840.00
2024-04-06T06:47:26.519Z,841.00
2024-04-06T06:48:26.493Z,845.00
2024-04-06T06:49:26.523Z,848.00
2024-04-06T06:50:26.530Z,845.00
2024-04-06T06:51:26.504Z,845.00
2024-04-06T06:52:26.539Z,846.00
2024-04-06T06:53:26.563Z,846.00
2024-04-06T06:54:26.549Z,846.00
2024-04-06T06:55:26.561Z,846.00
2024-04-06T06:56:26.531Z,845.00
2024-04-06T06:57:26.536Z,845.00
2024-04-06T06:58:26.530Z,848.00
2024-04-06T07:00:20.122Z,848.00
2024-04-06T07:00:27.527Z,846.00
2024-04-06T07:01:26.551Z,850.00
2024-04-06T07:02:26.554Z,849.00
2024-04-06T07:03:26.557Z,849.00
2024-04-06T07:04:26.547Z,846.00
2024-04-06T07:05:26.553Z,849.00
2024-04-06T07:07:26.596Z,846.00
2024-04-06T07:08:26.614Z,846.00
2024-04-06T07:09:26.565Z,847.00
2024-04-06T07:10:26.585Z,847.00
2024-04-06T07:11:26.574Z,844.00
2024-04-06T07:12:26.573Z,842.00
2024-04-06T07:13:26.559Z,842.00
2024-04-06T07:14:26.562Z,843.00
2024-04-06T07:15:26.565Z,843.00
2024-04-06T07:16:26.589Z,841.00
2024-04-06T07:17:27.119Z,845.00
2024-04-06T07:18:26.581Z,842.00
2024-04-06T07:19:26.590Z,840.00
2024-04-06T07:20:26.595Z,840.00
2024-04-06T07:21:26.578Z,841.00
2024-04-06T07:22:26.562Z,841.00
2024-04-06T07:23:26.585Z,840.00
2024-04-06T07:24:26.578Z,839.00
2024-04-06T07:25:26.594Z,839.00
2024-04-06T07:26:26.602Z,841.00
2024-04-06T07:27:26.588Z,841.00
2024-04-06T07:28:26.607Z,842.00
2024-04-06T07:29:26.587Z,842.00
2024-04-06T07:30:26.613Z,843.00
2024-04-06T07:31:26.597Z,841.00
2024-04-06T07:32:26.615Z,839.00
2024-04-06T07:33:26.608Z,837.00
2024-04-06T07:34:26.615Z,839.00
2024-04-06T07:35:26.603Z,840.00
2024-04-06T07:36:26.609Z,840.00
2024-04-06T07:37:26.603Z,843.00
2024-04-06T07:38:26.598Z,843.00
2024-04-06T07:39:26.602Z,846.00
2024-04-06T07:40:26.753Z,845.00
2024-04-06T07:41:26.607Z,844.00
2024-04-06T07:42:26.663Z,841.00
2024-04-06T07:43:26.626Z,840.00
2024-04-06T07:44:26.609Z,842.00
2024-04-06T07:45:26.621Z,840.00
2024-04-06T07:46:26.613Z,841.00
2024-04-06T07:47:26.657Z,840.00
2024-04-06T07:48:26.640Z,838.00
2024-04-06T07:49:26.656Z,838.00
2024-04-06T07:50:26.733Z,838.00
2024-04-06T07:51:26.790Z,838.00
2024-04-06T07:52:26.830Z,838.00
2024-04-06T07:53:26.896Z,837.00
2024-04-06T07:54:26.954Z,836.00
2024-04-06T07:55:27.018Z,834.00
2024-04-06T07:56:27.060Z,836.00
2024-04-06T07:57:27.133Z,837.00
2024-04-06T07:58:27.174Z,838.00
2024-04-06T07:59:27.247Z,837.00
2024-04-06T08:00:27.330Z,835.00
2024-04-06T08:01:27.346Z,831.00
2024-04-06T08:02:27.402Z,831.00
2024-04-06T08:03:27.479Z,833.00
2024-04-06T08:04:27.509Z,833.00
2024-04-06T08:05:27.563Z,831.00
2024-04-06T08:06:27.635Z,832.00
2024-04-06T08:07:27.672Z,833.00
2024-04-06T08:08:27.721Z,831.00
2024-04-06T08:09:27.751Z,831.00
2024-04-06T08:10:27.802Z,834.00
2024-04-06T08:11:27.833Z,834.00
2024-04-06T08:12:27.911Z,834.00
2024-04-06T08:13:27.928Z,831.00
2024-04-06T08:14:27.955Z,829.00
2024-04-06T08:15:30.950Z,828.00
2024-04-06T08:16:28.019Z,828.00
2024-04-06T08:17:28.088Z,829.00
2024-04-06T08:18:28.017Z,829.00
2024-04-06T08:19:28.028Z,829.00
2024-04-06T08:20:28.020Z,826.00
2024-04-06T08:21:28.011Z,827.00
2024-04-06T08:22:28.019Z,825.00
2024-04-06T08:23:28.031Z,825.00
2024-04-06T08:24:28.014Z,822.00
2024-04-06T08:25:28.074Z,820.00
2024-04-06T08:26:28.026Z,818.00
2024-04-06T08:27:28.025Z,819.00
2024-04-06T08:28:28.054Z,821.00
2024-04-06T08:29:28.035Z,822.00
2024-04-06T08:30:28.031Z,822.00
2024-04-06T08:31:28.052Z,822.00
2024-04-06T08:32:28.055Z,821.00
2024-04-06T08:33:28.057Z,822.00
2024-04-06T08:34:28.047Z,825.00
2024-04-06T08:35:28.040Z,827.00
2024-04-06T08:36:28.059Z,826.00
2024-04-06T08:37:28.066Z,830.00
2024-04-06T08:38:28.054Z,829.00
2024-04-06T08:39:28.074Z,831.00
2024-04-06T08:40:28.082Z,831.00
2024-04-06T08:41:28.061Z,827.00
2024-04-06T08:42:28.096Z,826.00
2024-04-06T08:43:28.061Z,825.00
2024-04-06T08:44:28.065Z,823.00
2024-04-06T08:45:28.124Z,825.00
2024-04-06T08:46:28.066Z,828.00
2024-04-06T08:47:28.103Z,827.00
2024-04-06T08:48:28.084Z,826.00
2024-04-06T08:49:28.080Z,829.00
2024-04-06T08:50:28.066Z,828.00
2024-04-06T08:51:28.094Z,828.00
2024-04-06T08:52:28.077Z,827.00
2024-04-06T08:53:28.143Z,827.00
2024-04-06T08:54:28.089Z,826.00
2024-04-06T08:55:28.083Z,826.00
2024-04-06T08:56:28.088Z,827.00
2024-04-06T08:57:28.105Z,826.00
2024-04-06T08:58:28.150Z,827.00
2024-04-06T08:59:28.159Z,826.00
2024-04-06T09:00:28.250Z,826.00
2024-04-06T09:01:28.227Z,823.00
2024-04-06T09:02:28.247Z,822.00
2024-04-06T09:03:28.283Z,822.00
2024-04-06T09:04:28.294Z,821.00
2024-04-06T09:05:28.338Z,817.00
2024-04-06T09:06:28.348Z,813.00
2024-04-06T09:07:28.398Z,811.00
2024-04-06T09:08:28.393Z,809.00
2024-04-06T09:09:28.424Z,809.00
2024-04-06T09:10:28.483Z,811.00
2024-04-06T09:11:28.492Z,813.00
2024-04-06T09:12:28.493Z,813.00
2024-04-06T09:13:28.524Z,816.00
2024-04-06T09:14:28.524Z,817.00
2024-04-06T09:15:28.564Z,817.00
2024-04-06T09:16:28.590Z,819.00
2024-04-06T09:17:28.623Z,818.00
2024-04-06T09:18:30.748Z,819.00
2024-04-06T09:19:28.656Z,819.00
2024-04-06T09:20:28.684Z,821.00
2024-04-06T09:21:28.671Z,820.00
2024-04-06T09:22:28.699Z,822.00
2024-04-06T09:23:28.704Z,820.00
2024-04-06T09:24:28.725Z,817.00
2024-04-06T09:25:28.770Z,818.00
2024-04-06T09:26:28.744Z,820.00
2024-04-06T09:27:28.768Z,818.00
2024-04-06T09:28:28.775Z,819.00
2024-04-06T09:29:28.796Z,820.00
2024-04-06T09:30:28.823Z,822.00
2024-04-06T09:31:28.859Z,823.00
2024-04-06T09:32:28.860Z,822.00
2024-04-06T09:33:28.827Z,821.00
2024-04-06T09:34:28.846Z,821.00
2024-04-06T09:35:28.903Z,821.00
2024-04-06T09:36:28.874Z,823.00
2024-04-06T09:37:28.940Z,823.00
2024-04-06T09:38:28.935Z,824.00
2024-04-06T09:39:28.939Z,822.00
2024-04-06T09:40:28.972Z,821.00
2024-04-06T09:41:28.991Z,822.00
2024-04-06T09:42:29.012Z,820.00
2024-04-06T09:43:29.039Z,821.00
2024-04-06T09:44:29.072Z,824.00
2024-04-06T09:45:29.103Z,825.00
2024-04-06T09:46:29.142Z,821.00
2024-04-06T09:47:29.218Z,821.00
2024-04-06T09:48:29.208Z,820.00
2024-04-06T09:49:29.273Z,818.00
2024-04-06T09:50:29.296Z,817.00
2024-04-06T09:51:29.332Z,819.00
2024-04-06T09:52:29.379Z,820.00
2024-04-06T09:53:29.448Z,820.00
2024-04-06T09:54:29.516Z,822.00
2024-04-06T09:55:29.537Z,823.00
2024-04-06T09:56:29.603Z,824.00
2024-04-06T09:57:29.626Z,824.00
2024-04-06T09:58:29.690Z,825.00
2024-04-06T09:59:29.766Z,822.00
2024-04-06T10:00:29.810Z,824.00
2024-04-06T10:01:29.851Z,822.00
2024-04-06T10:02:29.940Z,823.00
2024-04-06T10:03:29.967Z,823.00
2024-04-06T10:04:30.011Z,819.00
2024-04-06T10:05:30.083Z,819.00
2024-04-06T10:06:30.116Z,822.00
2024-04-06T10:07:30.191Z,823.00
2024-04-06T10:08:30.220Z,825.00
2024-04-06T10:09:30.246Z,826.00
2024-04-06T10:10:30.293Z,824.00
2024-04-06T10:11:30.339Z,823.00
2024-04-06T10:12:30.389Z,822.00
2024-04-06T10:13:30.429Z,820.00
2024-04-06T10:14:30.461Z,823.00
2024-04-06T10:15:30.528Z,823.00
2024-04-06T10:16:30.584Z,823.00
2024-04-06T10:17:30.615Z,821.00
2024-04-06T10:18:30.656Z,821.00
2024-04-06T10:19:30.717Z,820.00
2024-04-06T10:20:30.738Z,822.00
2024-04-06T10:21:30.806Z,822.00
2024-04-06T10:22:30.879Z,822.00
2024-04-06T10:23:30.926Z,821.00
2024-04-06T10:24:30.990Z,818.00
2024-04-06T10:25:31.057Z,816.00
2024-04-06T10:26:31.094Z,818.00
2024-04-06T10:27:31.148Z,817.00
2024-04-06T10:28:31.217Z,818.00
2024-04-06T10:29:31.245Z,817.00
2024-04-06T10:30:31.308Z,818.00
2024-04-06T10:31:39.565Z,820.00
2024-04-06T10:32:32.452Z,817.00
2024-04-06T10:33:31.395Z,821.00
2024-04-06T10:34:36.384Z,820.00
2024-04-06T10:35:32.416Z,819.00
2024-04-06T10:36:31.395Z,818.00
2024-04-06T10:37:31.403Z,818.00
2024-04-06T10:38:31.428Z,815.00
2024-04-06T10:39:31.406Z,815.00
2024-04-06T10:40:31.413Z,814.00
2024-04-06T10:41:31.413Z,814.00
2024-04-06T10:42:31.410Z,815.00
2024-04-06T10:43:31.421Z,816.00
2024-04-06T10:44:31.418Z,817.00
2024-04-06T10:45:31.440Z,816.00
2024-04-06T10:46:31.472Z,814.00
2024-04-06T10:47:31.546Z,813.00
2024-04-06T10:48:31.600Z,813.00
2024-04-06T10:49:31.620Z,814.00
2024-04-06T10:50:31.686Z,813.00
2024-04-06T10:51:31.859Z,814.00
2024-04-06T10:52:31.875Z,816.00
2024-04-06T10:53:31.855Z,819.00
2024-04-06T10:54:32.676Z,821.00
2024-04-06T10:55:31.976Z,819.00
2024-04-06T10:56:32.003Z,817.00
2024-04-06T10:57:32.104Z,817.00
2024-04-06T10:58:32.123Z,818.00
2024-04-06T10:59:32.177Z,818.00
2024-04-06T11:00:33.413Z,816.00
2024-04-06T11:01:32.281Z,820.00
2024-04-06T11:02:32.320Z,821.00
2024-04-06T11:03:32.354Z,821.00
2024-04-06T11:04:32.401Z,821.00
2024-04-06T11:05:32.469Z,817.00
2024-04-06T11:06:33.820Z,817.00
2024-04-06T11:07:32.562Z,818.00
2024-04-06T11:08:32.635Z,817.00
2024-04-06T11:09:32.681Z,816.00
2024-04-06T11:10:32.717Z,814.00
2024-04-06T11:11:32.740Z,814.00
2024-04-06T11:12:34.376Z,815.00
2024-04-06T11:13:32.785Z,818.00
2024-04-06T11:14:32.790Z,817.00
2024-04-06T11:15:32.795Z,817.00
2024-04-06T11:16:32.788Z,816.00
2024-04-06T11:17:32.866Z,810.00
2024-04-06T11:18:33.081Z,811.00
2024-04-06T11:19:32.789Z,811.00
2024-04-06T11:20:33.211Z,808.00
2024-04-06T11:21:32.798Z,805.00
2024-04-06T11:22:32.806Z,801.00
2024-04-06T11:23:32.831Z,801.00
2024-04-06T11:24:34.344Z,802.00
2024-04-06T11:25:32.802Z,805.00
2024-04-06T11:26:32.812Z,805.00
2024-04-06T11:27:32.815Z,805.00
2024-04-06T11:28:32.845Z,806.00
2024-04-06T11:29:32.826Z,804.00
2024-04-06T11:30:32.820Z,807.00
2024-04-06T11:31:32.824Z,809.00
2024-04-06T11:32:32.828Z,807.00
2024-04-06T11:33:32.849Z,806.00
2024-04-06T11:34:32.846Z,807.00
2024-04-06T11:35:32.826Z,808.00
2024-04-06T11:36:32.847Z,806.00
2024-04-06T11:37:32.860Z,806.00
2024-04-06T11:38:32.849Z,810.00
2024-04-06T11:39:32.859Z,811.00
2024-04-06T11:40:32.855Z,810.00
2024-04-06T11:41:32.842Z,812.00
2024-04-06T11:42:32.859Z,810.00
2024-04-06T11:43:32.874Z,807.00
2024-04-06T11:44:32.844Z,807.00
2024-04-06T11:45:32.868Z,806.00
2024-04-06T11:46:32.854Z,803.00
2024-04-06T11:47:32.871Z,803.00
2024-04-06T11:48:32.878Z,804.00
2024-04-06T11:49:32.853Z,809.00
2024-04-06T11:50:32.867Z,812.00
2024-04-06T11:51:32.897Z,812.00
2024-04-06T11:52:32.874Z,812.00
2024-04-06T11:53:32.868Z,811.00
2024-04-06T11:54:32.885Z,810.00
2024-04-06T11:55:32.895Z,812.00
2024-04-06T11:56:32.879Z,811.00
2024-04-06T11:57:32.874Z,812.00
2024-04-06T11:58:32.880Z,809.00
2024-04-06T11:59:32.880Z,808.00
2024-04-06T12:00:32.880Z,807.00
2024-04-06T12:01:32.884Z,808.00
2024-04-06T12:02:32.885Z,808.00
2024-04-06T12:03:32.901Z,808.00
2024-04-06T12:04:32.888Z,808.00
2024-04-06T12:05:32.890Z,810.00
2024-04-06T12:06:32.888Z,809.00
2024-04-06T12:07:32.929Z,809.00
2024-04-06T12:08:32.893Z,806.00
2024-04-06T12:09:32.899Z,806.00
2024-04-06T12:10:32.932Z,809.00
2024-04-06T12:11:32.900Z,810.00
2024-04-06T12:12:32.900Z,810.00
2024-04-06T12:13:32.921Z,809.00
2024-04-06T12:14:32.927Z,808.00
2024-04-06T12:15:32.919Z,808.00
2024-04-06T12:16:33.059Z,811.00
2024-04-06T12:17:32.942Z,810.00
2024-04-06T12:18:32.926Z,808.00
2024-04-06T12:19:32.929Z,807.00
2024-04-06T12:20:32.944Z,807.00
2024-04-06T12:21:32.926Z,807.00
2024-04-06T12:22:32.942Z,807.00
2024-04-06T12:23:32.951Z,809.00
2024-04-06T12:24:32.937Z,811.00
2024-04-06T12:25:32.960Z,810.00
2024-04-06T12:26:32.928Z,811.00
2024-04-06T12:27:32.934Z,810.00
2024-04-06T12:28:32.946Z,808.00
2024-04-06T12:29:32.981Z,808.00
2024-04-06T12:30:33.237Z,806.00
2024-04-06T12:31:33.053Z,806.00
2024-04-06T12:32:33.102Z,806.00
2024-04-06T12:33:33.133Z,806.00